Time;durP1;ratioP1;P1;durP2;ratioP2;P2;SDS_P1;SDS_P2;PMS_P1;PMS_P2;Temp;Humidity;BMP_temperature;BMP_pressure;BME280_temperature;BME280_humidity;BME280_pressure;Samples;Min_cycle;Max_cycle;Signal;HPM_P1;HPM_P2
2022/12/11 00:01:49;;;;;;;13.30;5.50;;;;;;;;;;5064522;28;20063;-69
2022/12/11 00:04:14;;;;;;;9.07;5.60;;;;;;;;;;5068924;28;20288;-70
2022/12/11 00:06:39;;;;;;;9.83;5.73;;;;;;;;;;5065211;28;20715;-68
2022/12/11 00:09:04;;;;;;;11.52;6.28;;;;;;;;;;5068029;28;20289;-68
2022/12/11 00:11:30;;;;;;;9.67;5.37;;;;;;;;;;5069189;28;20024;-68
2022/12/11 00:13:55;;;;;;;16.58;5.85;;;;;;;;;;5065468;28;20096;-69
2022/12/11 00:16:20;;;;;;;10.90;6.17;;;;;;;;;;5063183;28;20052;-69
2022/12/11 00:18:45;;;;;;;10.03;6.10;;;;;;;;;;5063247;28;20035;-69
2022/12/11 00:21:13;;;;;;;13.73;6.53;;;;;;;;;;5067405;28;20417;-68
2022/12/11 00:23:38;;;;;;;12.80;6.80;;;;;;;;;;5068372;28;20052;-69
2022/12/11 00:26:05;;;;;;;13.40;6.20;;;;;;;;;;5065695;28;20556;-67
2022/12/11 00:28:30;;;;;;;15.63;7.55;;;;;;;;;;5069317;28;20277;-70
2022/12/11 00:30:55;;;;;;;11.67;6.40;;;;;;;;;;5068663;28;20028;-68
2022/12/11 00:33:21;;;;;;;13.97;7.10;;;;;;;;;;5065005;28;20032;-69
2022/12/11 00:35:46;;;;;;;15.90;7.03;;;;;;;;;;5067054;28;20075;-68
2022/12/11 00:38:15;;;;;;;12.88;7.18;;;;;;;;;;5069350;28;20066;-68
2022/12/11 00:40:41;;;;;;;17.90;7.28;;;;;;;;;;5066476;28;20039;-67
2022/12/11 00:43:06;;;;;;;18.48;7.15;;;;;;;;;;5070246;28;20017;-69
2022/12/11 00:45:35;;;;;;;10.30;6.03;;;;;;;;;;5067573;28;20025;-68
2022/12/11 00:48:00;;;;;;;11.63;5.75;;;;;;;;;;5067304;28;20066;-67
2022/12/11 00:50:25;;;;;;;14.03;8.03;;;;;;;;;;5062731;28;20048;-69
2022/12/11 00:52:51;;;;;;;13.18;7.40;;;;;;;;;;5052533;28;20078;-68
2022/12/11 00:55:16;;;;;;;12.30;7.30;;;;;;;;;;5066980;28;20032;-68
2022/12/11 00:57:41;;;;;;;12.48;7.22;;;;;;;;;;5065548;28;20120;-68
2022/12/11 01:00:07;;;;;;;14.73;5.63;;;;;;;;;;5052781;28;20073;-66
2022/12/11 01:02:32;;;;;;;12.95;6.28;;;;;;;;;;5065994;28;20021;-67
2022/12/11 01:04:57;;;;;;;12.82;6.05;;;;;;;;;;5065661;28;20013;-67
2022/12/11 01:07:23;;;;;;;9.37;5.43;;;;;;;;;;5071116;28;20028;-66
2022/12/11 01:12:32;;;;;;;10.68;6.20;;;;;;;;;;5066964;28;20090;-66
2022/12/11 01:14:57;;;;;;;9.20;5.53;;;;;;;;;;5062132;28;20041;-68
2022/12/11 01:17:23;;;;;;;8.03;5.87;;;;;;;;;;5064475;28;20064;-68
2022/12/11 01:19:48;;;;;;;7.17;5.20;;;;;;;;;;5065950;28;20277;-67
2022/12/11 01:22:13;;;;;;;9.10;5.93;;;;;;;;;;5067576;28;20036;-68
2022/12/11 01:24:38;;;;;;;8.77;5.70;;;;;;;10.20;nan;98002.56;5066712;28;20070;-68
2022/12/11 01:27:04;;;;;;;10.32;5.93;;;;;;;10.13;nan;98017.13;5066185;28;20519;-68
2022/12/11 01:29:29;;;;;;;8.18;6.00;;;;;;;10.06;nan;98019.31;5058598;28;20028;-68
2022/12/11 01:31:55;;;;;;;8.05;5.63;;;;;;;9.92;nan;98006.03;5064682;28;20446;-68
2022/12/11 01:34:20;;;;;;;6.88;4.63;;;;;;;9.80;nan;98001.16;5061027;28;20052;-68
2022/12/11 01:36:45;;;;;;;5.10;4.05;;;;;;;9.76;nan;98000.13;5066179;28;20021;-69
2022/12/11 01:39:11;;;;;;;3.95;3.05;;;;;;;9.62;nan;97975.56;5068624;28;20055;-68
2022/12/11 01:41:36;;;;;;;3.53;3.10;;;;;;;9.60;nan;97986.38;5071065;28;20039;-68
2022/12/11 01:44:05;;;;;;;4.32;2.95;;;;;;;9.55;nan;97989.03;5065172;28;20178;-68
2022/12/11 01:46:33;;;;;;;3.20;2.80;;;;;;;9.47;nan;97998.31;5066084;28;20115;-68
2022/12/11 01:49:01;;;;;;;4.45;2.83;;;;;;;9.34;nan;97983.19;5064479;28;20036;-67
2022/12/11 01:51:29;;;;;;;5.38;2.63;;;;;;;9.27;nan;97972.22;5068684;28;20029;-68
2022/12/11 01:54:01;;;;;;;4.18;2.80;;;;;;;9.26;nan;97991.66;5064916;28;20051;-66
2022/12/11 01:56:30;;;;;;;5.05;2.85;;;;;;;9.07;nan;97978.41;5045625;28;20115;-69
2022/12/11 01:58:59;;;;;;;5.00;3.60;;;;;;;9.07;nan;98000.19;5064964;28;20170;-67
2022/12/11 02:01:33;;;;;;;4.22;2.97;;;;;;;9.01;nan;98001.28;5061531;28;20024;-68
2022/12/11 02:04:00;;;;;;;4.50;2.97;;;;;;;8.94;nan;98012.09;5066597;28;20436;-68
2022/12/11 02:06:37;;;;;;;4.63;3.10;;;;;;;8.81;nan;98014.53;5067565;28;20047;-67
2022/12/11 02:09:09;;;;;;;6.07;3.30;;;;;;;8.78;nan;98030.84;5063967;28;20017;-69
2022/12/11 02:11:45;;;;;;;4.53;2.78;;;;;;;8.59;nan;98026.19;5065913;28;20035;-68
2022/12/11 02:14:37;;;;;;;3.95;2.33;;;;;;;8.37;nan;98025.75;5066619;28;20032;-68
2022/12/11 02:17:05;;;;;;;1.92;1.73;;;;;;;;;;5062750;28;20475;-67
2022/12/11 02:19:30;;;;;;;2.67;1.70;;;;;;;;;;5063482;28;20055;-67
2022/12/11 02:21:57;;;;;;;1.77;1.60;;;;;;;;;;5062141;28;20394;-68
2022/12/11 02:24:49;;;;;;;2.00;1.50;;;;;;;;;;5066141;28;20047;-68
2022/12/11 02:27:25;;;;;;;2.03;1.58;;;;;;;;;;5031077;28;20052;-68
2022/12/11 02:29:53;;;;;;;2.05;1.48;;;;;;;;;;5065758;28;20060;-67
2022/12/11 02:32:25;;;;;;;2.10;1.40;;;;;;;;;;5064761;28;20545;-66
2022/12/11 02:34:58;;;;;;;2.35;1.60;;;;;;;;;;5064825;28;20036;-67
2022/12/11 02:37:25;;;;;;;1.83;1.65;;;;;;;;;;5060591;28;20032;-68
2022/12/11 02:39:52;;;;;;;2.03;1.42;;;;;;;;;;5065351;28;20036;-68
2022/12/11 02:42:18;;;;;;;2.08;1.60;;;;;;;;;;5064225;28;20028;-68
2022/12/11 02:44:45;;;;;;;1.77;1.60;;;;;;;;;;5063724;28;20035;-67
2022/12/11 02:47:12;;;;;;;2.92;1.83;;;;;;;;;;5065450;28;20051;-67
2022/12/11 02:49:39;;;;;;;2.42;1.90;;;;;;;;;;5060855;28;20025;-66
2022/12/11 02:52:05;;;;;;;2.22;1.65;;;;;;;;;;5067261;28;20028;-67
2022/12/11 02:54:32;;;;;;;2.38;1.90;;;;;;;;;;5066044;28;20051;-68
2022/12/11 02:57:08;;;;;;;3.45;2.00;;;;;;;;;;5062059;28;20052;-67
2022/12/11 02:59:41;;;;;;;2.92;1.88;;;;;;;;;;5059543;28;20020;-67
2022/12/11 03:02:07;;;;;;;3.58;2.30;;;;;;;;;;5063279;28;20059;-67
2022/12/11 03:04:33;;;;;;;3.45;2.30;;;;;;;;;;5062033;28;20121;-68
2022/12/11 03:07:01;;;;;;;3.30;2.45;;;;;;;;;;5065849;28;20038;-68
2022/12/11 03:09:27;;;;;;;5.20;3.15;;;;;;;;;;5066910;28;20596;-68
2022/12/11 03:11:53;;;;;;;3.95;2.67;;;;;;;;;;5061197;28;20112;-68
2022/12/11 03:14:18;;;;;;;3.83;2.60;;;;;;;;;;5061638;28;20482;-67
2022/12/11 03:17:09;;;;;;;2.00;1.80;;;;;;;;;;5062930;28;20115;-67
2022/12/11 03:20:03;;;;;;;3.72;1.88;;;;;;;;;;5038067;28;20043;-67
2022/12/11 03:22:41;;;;;;;1.63;1.50;;;;;;;;;;5047522;28;20048;-67
2022/12/11 03:25:09;;;;;;;1.92;1.73;;;;;;;;;;5067355;28;20044;-68
2022/12/11 03:27:43;;;;;;;3.40;1.52;;;;;;;;;;5063748;28;20081;-69
2022/12/11 03:30:14;;;;;;;1.70;1.38;;;;;;;;;;5069059;28;20119;-70
2022/12/11 03:32:48;;;;;;;2.50;1.98;;;;;;;;;;5053665;28;20036;-68
2022/12/11 03:35:17;;;;;;;2.50;1.98;;;;;;;;;;5050502;28;20024;-69
2022/12/11 03:37:42;;;;;;;;;;;;;;;;;;5062471;28;20073;-68
2022/12/11 03:40:11;;;;;;;1.48;1.35;;;;;;;;;;5069128;28;20362;-70
2022/12/11 03:42:37;;;;;;;1.83;1.60;;;;;;;;;;5051616;28;20029;-69
2022/12/11 03:45:03;;;;;;;2.35;1.70;;;;;;;;;;5062171;28;20061;-68
2022/12/11 03:47:29;;;;;;;6.10;2.88;;;;;;;;;;5063921;28;20028;-68
2022/12/11 03:49:55;;;;;;;2.00;1.80;;;;;;;;;;5065242;28;20032;-68
2022/12/11 03:52:22;;;;;;;3.28;1.95;;;;;;;;;;5067113;28;20025;-68
2022/12/11 03:54:48;;;;;;;1.80;1.60;;;;;;;;;;5060927;28;20121;-69
2022/12/11 03:57:15;;;;;;;4.15;1.77;;;;;;;;;;5021980;28;1155390;-69
2022/12/11 03:59:40;;;;;;;2.47;1.42;;;;;;;;;;5066998;28;20036;-68
2022/12/11 04:02:09;;;;;;;1.80;1.40;;;;;;;;;;5067929;28;20047;-68
2022/12/11 04:04:38;;;;;;;5.75;1.45;;;;;;;;;;5067545;28;20025;-69
2022/12/11 04:07:04;;;;;;;1.20;1.07;;;;;;;;;;5070605;28;20078;-68
2022/12/11 04:09:29;;;;;;;2.15;0.85;;;;;;;;;;5066511;28;20056;-68
2022/12/11 04:11:54;;;;;;;4.50;0.97;;;;;;;;;;5062144;28;20055;-68
2022/12/11 04:17:04;;;;;;;0.93;0.73;;;;;;;;;;5065132;28;20363;-68
2022/12/11 04:24:57;;;;;;;2.65;0.88;;;;;;;;;;5068567;28;20039;-67
2022/12/11 04:30:08;;;;;;;1.50;1.10;;;;;;;;;;5068306;28;20098;-67
2022/12/11 04:32:33;;;;;;;1.83;0.98;;;;;;;;;;5064271;28;20070;-68
2022/12/11 04:34:59;;;;;;;1.25;0.82;;;;;;;;;;5047725;28;20032;-69
2022/12/11 04:37:25;;;;;;;2.40;0.97;;;;;;;;;;5068087;28;20524;-67
2022/12/11 04:39:51;;;;;;;1.10;0.90;;;;;;;;;;5063914;28;20287;-68
2022/12/11 04:42:16;;;;;;;1.10;0.93;;;;;;;;;;5066620;28;20032;-68
2022/12/11 04:44:41;;;;;;;2.20;1.00;;;;;;;;;;5067028;28;20032;-68
2022/12/11 04:47:06;;;;;;;1.23;0.88;;;;;;;;;;5066886;28;20372;-68
2022/12/11 04:49:32;;;;;;;1.35;0.90;;;;;;;;;;5061699;28;20447;-67
2022/12/11 04:51:57;;;;;;;1.17;0.90;;;;;;;;;;5066538;28;20037;-68
2022/12/11 04:54:22;;;;;;;4.97;1.60;;;;;;;;;;5064190;28;20277;-67
2022/12/11 04:56:47;;;;;;;3.00;1.67;;;;;;;;;;5061030;28;20021;-67
2022/12/11 04:59:13;;;;;;;2.80;1.35;;;;;;;;;;5060412;28;20277;-67
2022/12/11 05:01:38;;;;;;;1.88;1.27;;;;;;;;;;5061027;28;20117;-67
2022/12/11 05:04:04;;;;;;;3.43;1.30;;;;;;;;;;5065379;28;20035;-66
2022/12/11 05:06:29;;;;;;;1.80;1.40;;;;;;;;;;5049915;28;20028;-67
2022/12/11 05:08:54;;;;;;;3.33;1.40;;;;;;;;;;5065051;28;20265;-68
2022/12/11 05:11:19;;;;;;;2.20;1.13;;;;;;;;;;5066678;28;20024;-66
2022/12/11 05:13:45;;;;;;;2.30;1.27;;;;;;;;;;5069772;28;20035;-68
2022/12/11 05:16:12;;;;;;;2.43;1.33;;;;;;;;;;5066897;28;20646;-68
2022/12/11 05:18:37;;;;;;;2.58;1.30;;;;;;;;;;5067683;28;20496;-68
2022/12/11 05:21:04;;;;;;;1.50;1.10;;;;;;;;;;5067106;28;20032;-68
2022/12/11 05:23:29;;;;;;;1.65;0.95;;;;;;;;;;5067152;28;20020;-68
2022/12/11 05:25:56;;;;;;;2.20;1.00;;;;;;;;;;5064086;28;20032;-67
2022/12/11 05:28:23;;;;;;;1.63;0.80;;;;;;;;;;5068522;28;20801;-68
2022/12/11 05:30:53;;;;;;;3.03;0.90;;;;;;;;;;5048928;28;20481;-67
2022/12/11 05:33:18;;;;;;;1.27;0.82;;;;;;;;;;5063250;28;20392;-68
2022/12/11 05:35:47;;;;;;;5.63;1.73;;;;;;;;;;5065903;28;20104;-67
2022/12/11 05:38:12;;;;;;;2.08;1.10;;;;;;;;;;5067688;28;20032;-67
2022/12/11 05:40:37;;;;;;;3.87;2.17;;;;;;;;;;5061212;28;20023;-67
2022/12/11 05:43:02;;;;;;;2.03;1.30;;;;;;;;;;5064303;28;20285;-67
2022/12/11 05:45:28;;;;;;;2.40;1.50;;;;;;;;;;5049869;28;20280;-68
2022/12/11 05:47:53;;;;;;;4.97;1.77;;;;;;;;;;5064699;28;20032;-68
2022/12/11 05:50:18;;;;;;;3.17;1.60;;;;;;;;;;5065508;28;20032;-67
2022/12/11 05:52:43;;;;;;;1.97;1.27;;;;;;;;;;5066774;28;20032;-67
2022/12/11 05:55:08;;;;;;;2.10;1.53;;;;;;;;;;5061794;28;20032;-68
2022/12/11 05:57:34;;;;;;;3.10;1.70;;;;;;;;;;5061980;28;20053;-67
2022/12/11 05:59:59;;;;;;;5.70;1.90;;;;;;;;;;5067984;28;20028;-68
2022/12/11 06:02:24;;;;;;;2.77;1.90;;;;;;;;;;5070124;28;20028;-67
2022/12/11 06:04:49;;;;;;;3.23;2.30;;;;;;;;;;5066573;28;20040;-67
2022/12/11 06:07:15;;;;;;;3.73;2.47;;;;;;;;;;5067037;28;20304;-66
2022/12/11 06:09:40;;;;;;;9.10;5.17;;;;;;;;;;5065594;28;20029;-67
2022/12/11 06:12:05;;;;;;;8.50;5.30;;;;;;;;;;5057486;28;20024;-66
2022/12/11 06:14:30;;;;;;;12.13;6.70;;;;;;;;;;5043211;28;20066;-67
2022/12/11 06:16:56;;;;;;;10.02;5.90;;;;;;;;;;5057541;28;20395;-68
2022/12/11 06:19:21;;;;;;;10.47;6.37;;;;;;;;;;5060840;28;20028;-67
2022/12/11 06:21:47;;;;;;;12.33;6.60;;;;;;;;;;5058422;28;20317;-68
2022/12/11 06:24:13;;;;;;;10.63;5.80;;;;;;;;;;5060528;28;20025;-68
2022/12/11 06:26:38;;;;;;;10.68;5.90;;;;;;;;;;5046063;28;20024;-69
2022/12/11 06:29:03;;;;;;;14.20;6.77;;;;;;;;;;5047481;28;20033;-68
2022/12/11 06:31:28;;;;;;;11.57;6.72;;;;;;;;;;5057997;28;20116;-67
2022/12/11 06:33:54;;;;;;;11.77;7.03;;;;;;;;;;5055555;28;20027;-67
2022/12/11 06:36:21;;;;;;;15.70;7.88;;;;;;;;;;5063492;28;20331;-67
2022/12/11 06:38:46;;;;;;;15.07;7.85;;;;;;;;;;5059718;28;20044;-67
2022/12/11 06:41:12;;;;;;;14.43;8.03;;;;;;;;;;5043897;28;20032;-67
2022/12/11 06:43:38;;;;;;;14.80;8.25;;;;;;;;;;5040202;28;20360;-67
2022/12/11 06:46:13;;;;;;;14.95;8.68;;;;;;;;;;5064092;28;20126;-68
2022/12/11 06:48:40;;;;;;;24.75;12.65;;;;;;;;;;5059200;28;20487;-66
2022/12/11 06:51:07;;;;;;;22.48;11.43;;;;;;;;;;5065225;28;20025;-68
2022/12/11 06:53:32;;;;;;;20.90;11.38;;;;;;;;;;5046258;28;20040;-68
2022/12/11 06:56:05;;;;;;;20.35;11.50;;;;;;;;;;5061894;28;20028;-67
2022/12/11 06:58:30;;;;;;;21.35;11.20;;;;;;;;;;5060628;28;20475;-68
2022/12/11 07:00:56;;;;;;;18.70;10.65;;;;;;;;;;5063773;28;20132;-66
2022/12/11 07:03:21;;;;;;;23.48;11.38;;;;;;;;;;5065203;28;20429;-65
2022/12/11 07:05:46;;;;;;;23.05;11.63;;;;;;;;;;5065433;28;20028;-67
2022/12/11 07:08:11;;;;;;;21.50;10.53;;;;;;;;;;5063056;28;20017;-68
2022/12/11 07:10:37;;;;;;;21.30;11.10;;;;;;;;;;5067256;28;20071;-67
2022/12/11 07:13:02;;;;;;;24.13;12.63;;;;;;;;;;5061756;28;20045;-68
2022/12/11 07:15:27;;;;;;;24.53;11.73;;;;;;;;;;5064444;28;20028;-67
2022/12/11 07:17:52;;;;;;;25.97;12.90;;;;;;;;;;5062231;28;20037;-67
2022/12/11 07:20:18;;;;;;;23.23;12.07;;;;;;;;;;5043288;28;20032;-68
2022/12/11 07:22:43;;;;;;;21.70;11.15;;;;;;;;;;5062711;28;20703;-66
2022/12/11 07:25:08;;;;;;;25.10;12.73;;;;;;;;;;5054033;28;20489;-67
2022/12/11 07:27:33;;;;;;;23.35;11.80;;;;;;;;;;5060948;28;20056;-67
2022/12/11 07:29:59;;;;;;;23.77;12.85;;;;;;;;;;5060190;28;20112;-69
2022/12/11 07:32:24;;;;;;;23.20;12.63;;;;;;;;;;5053444;28;20021;-69
2022/12/11 07:34:50;;;;;;;23.63;12.07;;;;;;;;;;5052832;28;20327;-69
2022/12/11 07:37:15;;;;;;;25.58;12.65;;;;;;;;;;5061086;28;20026;-68
2022/12/11 07:39:40;;;;;;;23.53;12.10;;;;;;;;;;5066772;28;20046;-68
2022/12/11 07:42:05;;;;;;;24.07;12.73;;;;;;;;;;5060591;28;20337;-69
2022/12/11 07:44:31;;;;;;;28.40;13.20;;;;;;;;;;5048653;28;20036;-69
2022/12/11 07:46:57;;;;;;;26.85;13.05;;;;;;;;;;5046573;28;20692;-68
2022/12/11 07:49:22;;;;;;;23.40;12.20;;;;;;;;;;5064080;28;20116;-69
2022/12/11 07:51:47;;;;;;;25.67;12.80;;;;;;;;;;5056302;28;20025;-68
2022/12/11 07:54:15;;;;;;;25.97;12.30;;;;;;;;;;5061276;28;20036;-69
2022/12/11 07:56:40;;;;;;;23.80;12.68;;;;;;;;;;5064987;28;20029;-68
2022/12/11 07:59:06;;;;;;;24.88;12.10;;;;;;;;;;5061539;28;20043;-68
2022/12/11 08:01:34;;;;;;;23.05;12.05;;;;;;;;;;5061327;28;20028;-68
2022/12/11 08:04:00;;;;;;;27.70;14.13;;;;;;;;;;5062707;28;20078;-69
2022/12/11 08:06:29;;;;;;;30.67;15.07;;;;;;;;;;5062163;28;20028;-69
2022/12/11 08:08:55;;;;;;;31.90;16.27;;;;;;;;;;5063597;28;20033;-67
2022/12/11 08:11:20;;;;;;;31.00;15.45;;;;;;;;;;5050092;28;20097;-67
2022/12/11 08:13:46;;;;;;;28.83;14.50;;;;;;;;;;5060702;28;20524;-68
2022/12/11 08:16:13;;;;;;;31.25;15.00;;;;;;;;;;5043207;28;20024;-69
2022/12/11 08:18:39;;;;;;;38.65;17.52;;;;;;;;;;5061639;28;20028;-69
2022/12/11 08:21:08;;;;;;;34.58;15.98;;;;;;;;;;5068984;28;20036;-69
2022/12/11 08:23:33;;;;;;;36.28;15.35;;;;;;;;;;5068184;28;20437;-68
2022/12/11 08:26:00;;;;;;;47.67;17.88;;;;;;;;;;5049971;28;20124;-67
2022/12/11 08:28:25;;;;;;;49.58;16.85;;;;;;;;;;5063257;28;20024;-69
2022/12/11 08:30:51;;;;;;;44.63;18.20;;;;;;;;;;5069951;28;20078;-69
2022/12/11 08:33:16;;;;;;;63.90;21.50;;;;;;;;;;5065114;28;20032;-72
2022/12/11 08:35:42;;;;;;;66.33;21.30;;;;;;;;;;5066782;28;20025;-72
2022/12/11 08:38:08;;;;;;;58.08;18.35;;;;;;;;;;5064675;28;20308;-71
2022/12/11 08:40:33;;;;;;;24.95;12.70;;;;;;;;;;5065229;28;20032;-72
2022/12/11 08:42:58;;;;;;;31.60;14.63;;;;;;;;;;5068055;28;20029;-72
2022/12/11 08:45:24;;;;;;;29.10;13.60;;;;;;;;;;5067051;28;20769;-72
2022/12/11 08:47:49;;;;;;;27.83;14.13;;;;;;;;;;5049549;28;20282;-72
2022/12/11 08:50:14;;;;;;;21.77;11.63;;;;;;;;;;5061331;28;20078;-72
2022/12/11 08:52:39;;;;;;;24.35;12.23;;;;;;;;;;5062153;28;20056;-71
2022/12/11 08:55:05;;;;;;;29.33;13.80;;;;;;;;;;5061320;28;20021;-71
2022/12/11 08:57:30;;;;;;;20.10;10.73;;;;;;;;;;5067028;28;20051;-72
2022/12/11 08:59:55;;;;;;;23.80;12.73;;;;;;;;;;5058156;28;20372;-71
2022/12/11 09:02:21;;;;;;;27.17;13.17;;;;;;;;;;5062765;28;20285;-72
2022/12/11 09:04:46;;;;;;;27.43;13.53;;;;;;;;;;5064357;28;21130;-72
2022/12/11 09:07:11;;;;;;;24.90;12.73;;;;;;;;;;5067966;28;20276;-71
2022/12/11 09:09:36;;;;;;;32.80;11.70;;;;;;;;;;5065610;28;20051;-72
2022/12/11 09:12:03;;;;;;;24.55;12.45;;;;;;;;;;5067103;28;20036;-71
2022/12/11 09:14:28;;;;;;;22.20;11.02;;;;;;;;;;5043732;28;20035;-71
2022/12/11 09:16:53;;;;;;;22.87;11.67;;;;;;;;;;5062994;28;20537;-71
2022/12/11 09:19:19;;;;;;;26.27;12.33;;;;;;;;;;5050898;28;20385;-72
2022/12/11 09:21:44;;;;;;;23.87;11.33;;;;;;;;;;5037706;28;20285;-70
2022/12/11 09:24:10;;;;;;;22.90;11.23;;;;;;;;;;5063686;28;20368;-70
2022/12/11 09:26:35;;;;;;;20.70;10.65;;;;;;;;;;5060542;28;20036;-70
2022/12/11 09:29:02;;;;;;;23.70;11.10;;;;;;;;;;5065598;28;20104;-70
2022/12/11 09:31:28;;;;;;;24.48;11.43;;;;;;;;;;5049761;28;20277;-70
2022/12/11 09:33:55;;;;;;;25.20;12.13;;;;;;;;;;5052397;28;20035;-70
2022/12/11 09:36:20;;;;;;;23.30;12.23;;;;;;;;;;5060117;28;20031;-70
2022/12/11 09:38:45;;;;;;;28.15;11.95;;;;;;;;;;5048955;28;20036;-70
2022/12/11 09:41:22;;;;;;;26.58;12.63;;;;;;;;;;5049438;28;20032;-71
2022/12/11 09:43:56;;;;;;;26.00;12.38;;;;;;;;;;5049634;28;20037;-70
2022/12/11 09:46:21;;;;;;;27.17;12.93;;;;;;;;;;5063943;28;20032;-70
2022/12/11 09:48:48;;;;;;;26.98;13.00;;;;;;;;;;5065664;28;20043;-71
2022/12/11 09:51:20;;;;;;;30.52;13.18;;;;;;;;;;5064007;28;20059;-72
2022/12/11 09:53:49;;;;;;;27.50;13.80;;;;;;;;;;5065444;28;20027;-74
2022/12/11 09:56:17;;;;;;;28.50;13.43;;;;;;;;;;5049262;28;20078;-75
2022/12/11 09:58:57;;;;;;;27.52;14.13;;;;;;;;;;5052659;28;20044;-74
2022/12/11 10:01:23;;;;;;;24.85;12.55;;;;;;;;;;5065516;28;20043;-75
2022/12/11 10:03:57;;;;;;;24.20;11.97;;;;;;;;;;5062284;28;20490;-74
2022/12/11 10:06:22;;;;;;;26.02;12.88;;;;;;;;;;5067390;28;20024;-74
2022/12/11 10:09:06;;;;;;;30.63;14.10;;;;;;;;;;5059320;28;20052;-74
2022/12/11 10:11:34;;;;;;;28.42;13.32;;;;;;;;;;5059390;28;20278;-74
2022/12/11 10:14:18;;;;;;;23.85;11.88;;;;;;;;;;5045266;28;20016;-74
2022/12/11 10:16:46;;;;;;;23.33;12.20;;;;;;;;;;5059961;28;20064;-74
2022/12/11 10:19:17;;;;;;;24.25;13.23;;;;;;;;;;5061848;28;20031;-74
2022/12/11 10:21:42;;;;;;;26.92;12.93;;;;;;;;;;5065484;28;20028;-74
2022/12/11 10:24:30;;;;;;;26.50;13.05;;;;;;;;;;5061326;28;20020;-75
2022/12/11 10:26:58;;;;;;;24.23;12.38;;;;;;;;;;5057066;28;20514;-73
2022/12/11 10:29:23;;;;;;;27.25;13.95;;;;;;;;;;5043843;28;20024;-75
2022/12/11 10:31:52;;;;;;;24.60;12.88;;;;;;;;;;5064770;28;20108;-75
2022/12/11 10:34:34;;;;;;;25.65;12.70;;;;;;;;;;5066514;28;20374;-75
2022/12/11 10:36:59;;;;;;;24.88;12.93;;;;;;;;;;5060956;28;20028;-74
2022/12/11 10:39:24;;;;;;;25.10;13.50;;;;;;;;;;5061862;28;20032;-74
2022/12/11 10:41:51;;;;;;;24.48;13.45;;;;;;;;;;5066063;28;20758;-74
2022/12/11 10:44:21;;;;;;;23.77;12.27;;;;;;;;;;5061899;28;20033;-73
2022/12/11 10:46:46;;;;;;;;;;;;;;;;;;5041545;28;20091;-73
2022/12/11 10:49:26;;;;;;;24.40;12.47;;;;;;;;;;5059296;28;19916;-74
2022/12/11 10:51:52;;;;;;;27.73;14.10;;;;;;;;;;5037720;28;20028;-74
2022/12/11 10:54:26;;;;;;;27.25;14.50;;;;;;;;;;5058351;28;20025;-73
2022/12/11 10:56:51;;;;;;;26.23;13.35;;;;;;;;;;5057505;28;20414;-74
2022/12/11 10:59:29;;;;;;;29.55;13.93;;;;;;;;;;5057067;28;20028;-74
2022/12/11 11:01:55;;;;;;;29.50;15.18;;;;;;;;;;5040315;28;20020;-74
2022/12/11 11:04:26;;;;;;;23.75;12.05;;;;;;;;;;5062243;28;20054;-74
2022/12/11 11:07:11;;;;;;;28.83;15.10;;;;;;;;;;5064607;28;20482;-74
2022/12/11 11:09:37;;;;;;;22.55;11.27;;;;;;;;;;5049832;28;20028;-74
2022/12/11 11:12:02;;;;;;;25.25;14.45;;;;;;;;;;5065750;28;20024;-73
2022/12/11 11:14:28;;;;;;;21.52;11.65;;;;;;;;;;5064754;28;20048;-72
2022/12/11 11:16:56;;;;;;;25.23;13.55;;;;;;;;;;5061624;28;20762;-73
2022/12/11 11:19:35;;;;;;;25.67;14.23;;;;;;;;;;5062657;28;20513;-72
2022/12/11 11:22:11;;;;;;;23.73;13.32;;;;;;;;;;5061936;28;20099;-74
2022/12/11 11:24:42;;;;;;;22.55;11.68;;;;;;;;;;5063641;28;21177;-74
2022/12/11 11:27:21;;;;;;;28.95;14.35;;;;;;;;;;5038780;28;20530;-74
2022/12/11 11:29:46;;;;;;;30.48;14.85;;;;;;;;;;5059176;28;20040;-74
2022/12/11 11:32:32;;;;;;;24.20;13.82;;;;;;;;;;5059953;28;20027;-74
2022/12/11 11:35:12;;;;;;;32.40;16.02;;;;;;;;;;5037492;28;20052;-74
2022/12/11 11:37:39;;;;;;;28.10;13.65;;;;;;;;;;5054712;28;20036;-74
2022/12/11 11:40:13;;;;;;;29.27;13.85;;;;;;;;;;5058253;28;20037;-73
2022/12/11 11:42:57;;;;;;;32.53;14.85;;;;;;;;;;5059345;28;20070;-74
2022/12/11 11:45:25;;;;;;;29.58;13.75;;;;;;;;;;5058143;28;20124;-74
2022/12/11 11:48:16;;;;;;;27.92;13.55;;;;;;;;;;5064487;28;20029;-74
2022/12/11 11:50:43;;;;;;;27.58;13.38;;;;;;;;;;5024093;28;20074;-74
2022/12/11 11:53:19;;;;;;;35.95;15.88;;;;;;;;;;5058504;28;20017;-73
2022/12/11 11:55:57;;;;;;;33.67;15.27;;;;;;;;;;5061320;28;20032;-74
2022/12/11 11:58:26;;;;;;;33.25;15.70;;;;;;;;;;5060925;28;20103;-74
2022/12/11 12:00:54;;;;;;;33.25;15.35;;;;;;;;;;5062120;28;20090;-74
2022/12/11 12:03:22;;;;;;;34.92;15.00;;;;;;;;;;5058582;28;20017;-74
2022/12/11 12:05:53;;;;;;;32.70;15.18;;;;;;;;;;5063087;28;20035;-74
2022/12/11 12:08:25;;;;;;;28.45;13.18;;;;;;;;;;5065960;28;20530;-74
2022/12/11 12:10:58;;;;;;;28.27;13.27;;;;;;;;;;5046890;28;20035;-73
2022/12/11 12:13:42;;;;;;;27.90;14.02;;;;;;;;;;5063544;28;20044;-73
2022/12/11 12:16:13;;;;;;;38.80;15.80;;;;;;;;;;5048387;28;20028;-73
2022/12/11 12:18:51;;;;;;;41.55;16.77;;;;;;;;;;5074115;28;20096;-73
2022/12/11 12:21:35;;;;;;;34.72;15.73;;;;;;;;;;5064764;28;20440;-73
2022/12/11 12:24:19;;;;;;;36.90;15.95;;;;;;;;;;5065857;28;20028;-74
2022/12/11 12:26:49;;;;;;;39.97;15.95;;;;;;;;;;5064667;28;20032;-73
2022/12/11 12:29:17;;;;;;;33.28;15.02;;;;;;;;;;5066225;28;20032;-73
2022/12/11 12:31:42;;;;;;;42.85;16.73;;;;;;;;;;5066158;28;20047;-73
2022/12/11 12:34:14;;;;;;;35.57;16.23;;;;;;;;;;5063263;28;20030;-73
2022/12/11 12:36:39;;;;;;;39.75;17.80;;;;;;;;;;5045871;28;20020;-74
2022/12/11 12:39:20;;;;;;;37.45;17.13;;;;;;;;;;5065173;28;20063;-73
2022/12/11 12:41:54;;;;;;;35.10;16.95;;;;;;;;;;5061303;28;20029;-72
2022/12/11 12:44:20;;;;;;;31.48;15.93;;;;;;;;;;5038481;28;20028;-73
2022/12/11 12:46:51;;;;;;;37.63;17.25;;;;;;;;;;5058995;28;20029;-73
2022/12/11 12:49:43;;;;;;;30.13;13.98;;;;;;;;;;5067994;28;20087;-73
2022/12/11 12:52:30;;;;;;;30.95;15.57;;;;;;;;;;5056104;28;20040;-72
2022/12/11 12:55:16;;;;;;;33.70;14.80;;;;;;;;;;5058417;28;20138;-73
2022/12/11 12:57:47;;;;;;;30.20;15.13;;;;;;;;;;5062289;28;20044;-73
2022/12/11 13:00:12;;;;;;;32.53;14.68;;;;;;;;;;5059946;28;20659;-73
2022/12/11 13:02:47;;;;;;;26.02;12.65;;;;;;;;;;5059622;28;20029;-73
2022/12/11 13:05:20;;;;;;;24.45;12.90;;;;;;;;;;5056569;28;20029;-72
2022/12/11 13:07:50;;;;;;;27.15;14.13;;;;;;;;;;5060709;28;20079;-72
2022/12/11 13:10:22;;;;;;;30.48;14.25;;;;;;;;;;5058888;28;20103;-71
2022/12/11 13:12:48;;;;;;;29.00;13.90;;;;;;;;;;5060009;28;20075;-72
2022/12/11 13:15:23;;;;;;;27.00;13.98;;;;;;;;;;5060601;28;20465;-73
2022/12/11 13:17:49;;;;;;;21.98;12.45;;;;;;;;;;5057802;28;20052;-74
2022/12/11 13:20:16;;;;;;;23.92;12.68;;;;;;;;;;5059476;28;20052;-72
2022/12/11 13:22:54;;;;;;;25.05;13.10;;;;;;;;;;5066788;28;20020;-73
2022/12/11 13:25:29;;;;;;;24.83;12.23;;;;;;;;;;5060744;28;20029;-72
2022/12/11 13:28:19;;;;;;;25.98;12.95;;;;;;;;;;5041442;28;20039;-73
2022/12/11 13:30:44;;;;;;;;;;;;;;;;;;5065998;28;20044;-74
2022/12/11 13:33:17;;;;;;;29.47;14.67;;;;;;;;;;5064544;28;19924;-73
2022/12/11 13:35:42;;;;;;;28.58;14.18;;;;;;;;;;5064926;28;20070;-72
2022/12/11 13:38:15;;;;;;;27.45;13.75;;;;;;;;;;5051379;28;21413;-73
2022/12/11 13:40:41;;;;;;;27.77;14.40;;;;;;;;;;5065526;28;20489;-73
2022/12/11 13:43:14;;;;;;;27.88;14.57;;;;;;;;;;5066112;28;20021;-73
2022/12/11 13:45:43;;;;;;;31.27;15.20;;;;;;;;;;5062547;28;20024;-73
2022/12/11 13:48:21;;;;;;;29.48;15.25;;;;;;;;;;5059729;28;20505;-74
2022/12/11 13:50:47;;;;;;;32.55;15.85;;;;;;;;;;5065165;28;20086;-73
2022/12/11 13:53:13;;;;;;;31.98;15.77;;;;;;;;;;5064313;28;20020;-73
2022/12/11 13:55:38;;;;;;;32.20;15.68;;;;;;;;;;5055876;28;20032;-74
2022/12/11 13:58:13;;;;;;;26.27;13.53;;;;;;;;;;5041645;28;20041;-74
2022/12/11 14:00:38;;;;;;;29.58;14.50;;;;;;;;;;5057399;28;20448;-74
2022/12/11 14:03:06;;;;;;;33.30;16.47;;;;;;;;;;5048445;28;20055;-74
2022/12/11 14:05:32;;;;;;;29.05;12.80;;;;;;;;;;5066227;28;20028;-73
2022/12/11 14:08:00;;;;;;;26.45;13.35;;;;;;;;;;5063774;28;20028;-74
2022/12/11 14:10:26;;;;;;;28.48;14.02;;;;;;;;;;5048385;28;20056;-74
2022/12/11 14:12:58;;;;;;;31.40;15.75;;;;;;;;;;5068164;28;20037;-73
2022/12/11 14:15:23;;;;;;;34.40;16.05;;;;;;;;;;5063509;28;20052;-74
2022/12/11 14:17:49;;;;;;;26.25;12.88;;;;;;;;;;5060905;28;20047;-74
2022/12/11 14:20:17;;;;;;;27.63;13.50;;;;;;;;;;5062686;28;20024;-73
2022/12/11 14:22:42;;;;;;;25.77;13.05;;;;;;;;;;5036907;28;20124;-74
2022/12/11 14:25:17;;;;;;;26.00;13.07;;;;;;;;;;5062329;28;20115;-73
2022/12/11 14:27:46;;;;;;;24.67;12.43;;;;;;;;;;5067031;28;20284;-74
2022/12/11 14:30:12;;;;;;;28.38;13.93;;;;;;;;;;5059236;28;20028;-74
2022/12/11 14:32:41;;;;;;;26.83;14.43;;;;;;;;;;5068753;28;20090;-74
2022/12/11 14:35:15;;;;;;;27.20;13.98;;;;;;;;;;5066219;28;20078;-74
2022/12/11 14:37:40;;;;;;;25.02;14.00;;;;;;;;;;5060375;28;20028;-75